createdAt,value
2023-04-02T00:01:01.964Z,17.70
2023-04-02T00:03:42.605Z,16.50
2023-04-02T00:06:40.258Z,20.40
2023-04-02T00:09:15.325Z,21.60
2023-04-02T00:11:50.923Z,16.20
2023-04-02T00:14:30.942Z,17.70
2023-04-02T00:17:04.175Z,18.80
2023-04-02T00:19:58.442Z,16.80
2023-04-02T00:22:32.580Z,18.60
2023-04-02T00:25:12.851Z,17.90
2023-04-02T00:27:41.695Z,20.90
2023-04-02T00:30:13.620Z,18.90
2023-04-02T00:32:43.025Z,18.80
2023-04-02T00:35:27.827Z,18.10
2023-04-02T00:37:57.811Z,21.50
2023-04-02T00:40:30.801Z,17.40
2023-04-02T00:43:04.495Z,18.90
2023-04-02T00:45:37.588Z,21.70
2023-04-02T00:48:31.979Z,17.80
2023-04-02T00:51:14.655Z,19.40
2023-04-02T00:53:47.663Z,21.50
2023-04-02T00:56:39.530Z,23.30
2023-04-02T00:59:58.978Z,18.20
2023-04-02T01:02:38.595Z,20.80
2023-04-02T01:05:15.499Z,19.10
2023-04-02T01:07:56.027Z,17.80
2023-04-02T01:10:33.800Z,16.30
2023-04-02T01:13:23.708Z,21.80
2023-04-02T01:16:46.897Z,19.90
2023-04-02T01:19:27.221Z,20.80
2023-04-02T01:22:31.063Z,21.80
2023-04-02T01:25:00.111Z,17.00
2023-04-02T01:28:15.029Z,17.20
2023-04-02T01:30:49.253Z,13.50
2023-04-02T01:33:20.876Z,15.10
2023-04-02T01:36:07.216Z,13.80
2023-04-02T01:39:02.489Z,15.50
2023-04-02T01:41:47.320Z,16.50
2023-04-02T01:44:28.068Z,17.60
2023-04-02T01:46:59.062Z,15.50
2023-04-02T01:49:28.058Z,16.70
2023-04-02T01:51:57.351Z,17.50
2023-04-02T01:54:29.106Z,17.20
2023-04-02T01:56:58.318Z,19.10
2023-04-02T01:59:29.624Z,20.90
2023-04-02T02:02:11.926Z,16.50
2023-04-02T02:04:41.873Z,17.40
2023-04-02T02:07:20.844Z,18.20
2023-04-02T02:09:53.338Z,18.50
2023-04-02T02:12:23.217Z,19.20
2023-04-02T02:14:52.725Z,21.10
2023-04-02T02:17:34.748Z,19.10
2023-04-02T02:20:09.453Z,18.70
2023-04-02T02:22:43.762Z,19.70
2023-04-02T02:25:24.578Z,18.90
2023-04-02T02:28:10.360Z,18.60
2023-04-02T02:30:47.924Z,17.80
2023-04-02T02:33:27.224Z,20.20
2023-04-02T02:36:00.954Z,18.70
2023-04-02T02:38:35.425Z,19.20
2023-04-02T02:41:41.816Z,14.60
2023-04-02T02:44:10.701Z,20.50
2023-04-02T02:46:52.697Z,20.20
2023-04-02T02:49:29.008Z,19.90
2023-04-02T02:52:26.952Z,21.80
2023-04-02T02:55:06.728Z,15.70
2023-04-02T02:58:03.186Z,17.80
2023-04-02T03:00:36.773Z,19.10
2023-04-02T03:03:14.615Z,18.00
2023-04-02T03:05:44.423Z,17.20
2023-04-02T03:08:41.726Z,20.80
2023-04-02T03:11:25.133Z,19.00
2023-04-02T03:14:03.825Z,16.40
2023-04-02T03:16:44.272Z,20.80
2023-04-02T03:20:02.465Z,24.90
2023-04-02T03:22:39.716Z,20.90
2023-04-02T03:26:00.987Z,16.00
2023-04-02T03:28:35.779Z,18.20
2023-04-02T03:31:25.634Z,17.80
2023-04-02T03:34:00.699Z,20.70
2023-04-02T03:37:05.787Z,18.90
2023-04-02T03:39:42.885Z,18.10
2023-04-02T03:42:30.373Z,17.40
2023-04-02T03:45:08.190Z,18.70
2023-04-02T03:47:56.213Z,15.80
2023-04-02T03:50:36.331Z,17.80
2023-04-02T03:53:05.996Z,16.30
2023-04-02T03:55:39.072Z,15.30
2023-04-02T03:58:19.492Z,15.40
2023-04-02T04:01:17.755Z,14.60
2023-04-02T04:03:57.960Z,14.80
2023-04-02T04:06:33.766Z,14.00
2023-04-02T04:09:11.301Z,13.20
2023-04-02T04:11:48.400Z,14.90
2023-04-02T04:14:22.096Z,13.80
2023-04-02T04:17:15.626Z,12.60
2023-04-02T04:20:30.002Z,12.80
2023-04-02T04:23:20.143Z,13.30
2023-04-02T04:25:58.952Z,15.60
2023-04-02T04:29:13.286Z,18.50
2023-04-02T04:31:55.915Z,18.00
2023-04-02T04:34:47.028Z,16.90
2023-04-02T04:37:35.293Z,18.70
2023-04-02T04:40:23.018Z,16.60
2023-04-02T04:42:58.611Z,18.90
2023-04-02T04:45:43.312Z,15.00
2023-04-02T04:48:30.104Z,17.10
2023-04-02T04:51:17.650Z,15.70
2023-04-02T04:53:55.328Z,14.90
2023-04-02T04:56:30.960Z,15.30
2023-04-02T04:59:44.842Z,13.10
2023-04-02T05:02:29.414Z,15.10
2023-04-02T05:05:01.922Z,16.60
2023-04-02T05:07:46.133Z,16.40
2023-04-02T05:10:42.975Z,17.80
2023-04-02T05:13:33.256Z,16.50
2023-04-02T05:16:44.224Z,14.90
2023-04-02T05:19:51.261Z,15.30
2023-04-02T05:22:44.223Z,15.40
2023-04-02T05:25:29.671Z,15.40
2023-04-02T05:28:19.997Z,16.50
2023-04-02T05:30:56.575Z,14.70
2023-04-02T05:33:36.882Z,13.80
2023-04-02T05:36:12.832Z,14.90
2023-04-02T05:38:51.403Z,15.20
2023-04-02T05:41:32.643Z,13.60
2023-04-02T05:44:18.881Z,15.20
2023-04-02T05:46:57.100Z,16.50
2023-04-02T05:49:40.182Z,18.10
2023-04-02T05:52:17.863Z,14.00
2023-04-02T05:55:02.726Z,17.70
2023-04-02T05:58:34.592Z,15.20
2023-04-02T06:01:12.663Z,15.00
2023-04-02T06:04:00.392Z,15.80
2023-04-02T06:07:04.066Z,16.00
2023-04-02T06:09:45.214Z,19.20
2023-04-02T06:12:48.982Z,21.70
2023-04-02T06:15:23.906Z,17.60
2023-04-02T06:18:33.738Z,20.80
2023-04-02T06:21:24.013Z,19.10
2023-04-02T06:24:05.958Z,16.20
2023-04-02T06:26:43.846Z,21.40
2023-04-02T06:29:24.317Z,24.60
2023-04-02T06:32:01.556Z,20.50
2023-04-02T06:34:35.362Z,22.50
2023-04-02T06:37:34.621Z,23.80
2023-04-02T06:41:05.859Z,20.90
2023-04-02T06:44:19.963Z,20.30
2023-04-02T06:47:56.820Z,21.50
2023-04-02T06:51:09.524Z,19.60
2023-04-02T06:53:48.765Z,19.90
2023-04-02T06:56:37.457Z,20.10
2023-04-02T06:59:12.905Z,21.30
2023-04-02T07:02:06.921Z,24.20
2023-04-02T07:04:36.087Z,24.30
2023-04-02T07:07:04.958Z,16.90
2023-04-02T07:09:37.702Z,18.70
2023-04-02T07:12:15.243Z,22.10
2023-04-02T07:14:48.130Z,24.90
2023-04-02T07:17:18.676Z,20.60
2023-04-02T07:19:51.634Z,23.00
2023-04-02T07:22:24.110Z,22.70
2023-04-02T07:24:58.992Z,22.50
2023-04-02T07:27:28.145Z,24.50
2023-04-02T07:29:56.917Z,27.00
2023-04-02T07:32:25.772Z,20.20
2023-04-02T07:34:54.673Z,23.30
2023-04-02T07:37:23.410Z,25.30
2023-04-02T07:39:52.107Z,23.30
2023-04-02T07:42:20.800Z,28.00
2023-04-02T07:44:49.353Z,26.80
2023-04-02T07:47:18.042Z,26.30
2023-04-02T07:49:47.252Z,35.20
2023-04-02T07:52:15.881Z,38.70
2023-04-02T07:54:51.735Z,32.80
2023-04-02T07:57:28.541Z,39.40
2023-04-02T08:00:01.526Z,36.00
2023-04-02T08:02:41.515Z,34.10
2023-04-02T08:05:11.279Z,38.30
2023-04-02T08:07:42.552Z,37.90
2023-04-02T08:10:22.005Z,38.50
2023-04-02T08:12:54.084Z,42.20
2023-04-02T08:15:22.931Z,38.70
2023-04-02T08:18:23.800Z,42.50
2023-04-02T08:20:53.617Z,41.90
2023-04-02T08:23:31.567Z,44.30
2023-04-02T08:26:01.057Z,36.70
2023-04-02T08:28:29.936Z,36.00
2023-04-02T08:30:58.760Z,39.80
2023-04-02T08:33:27.604Z,38.70
2023-04-02T08:38:47.671Z,39.60
2023-04-02T08:41:28.094Z,33.10
2023-04-02T08:44:50.373Z,31.30
2023-04-02T08:47:26.112Z,38.00
2023-04-02T08:50:16.633Z,31.90
2023-04-02T08:52:45.214Z,33.30
2023-04-02T08:55:49.217Z,33.10
2023-04-02T09:02:32.841Z,34.10
2023-04-02T09:05:07.826Z,29.50
2023-04-02T09:07:36.773Z,31.50
2023-04-02T09:10:05.906Z,29.90
2023-04-02T09:12:36.519Z,31.80
2023-04-02T09:15:22.742Z,25.90
2023-04-02T09:18:17.126Z,27.00
2023-04-02T09:20:48.265Z,28.40
2023-04-02T09:23:26.202Z,28.80
2023-04-02T09:26:04.296Z,28.40
2023-04-02T09:28:35.971Z,27.70
2023-04-02T09:31:43.357Z,27.20
2023-04-02T09:34:35.111Z,30.00
2023-04-02T09:37:25.496Z,24.10
2023-04-02T09:40:29.564Z,24.40
2023-04-02T09:43:21.790Z,23.50
2023-04-02T09:46:16.123Z,25.80
2023-04-02T09:48:56.212Z,18.10
2023-04-02T09:51:56.064Z,19.80
2023-04-02T09:54:26.733Z,21.80
2023-04-02T09:57:06.063Z,21.10
2023-04-02T09:59:34.612Z,18.30
2023-04-02T10:02:28.735Z,27.10
2023-04-02T10:05:41.090Z,18.30
2023-04-02T10:08:33.020Z,21.70
2023-04-02T10:11:46.890Z,18.60
2023-04-02T10:14:17.074Z,18.60
2023-04-02T10:17:28.079Z,17.70
2023-04-02T10:20:18.116Z,18.40
2023-04-02T10:22:48.756Z,22.40
2023-04-02T10:25:21.671Z,18.60
2023-04-02T10:28:08.801Z,20.80
2023-04-02T10:30:55.444Z,18.10
2023-04-02T10:33:38.736Z,16.50
2023-04-02T10:36:30.750Z,17.30
2023-04-02T10:39:12.879Z,16.60
2023-04-02T10:41:57.749Z,15.90
2023-04-02T10:48:32.811Z,14.20
2023-04-02T10:51:07.754Z,13.30
2023-04-02T10:53:57.561Z,14.10
2023-04-02T10:56:35.195Z,11.80
2023-04-02T10:59:24.753Z,14.80
2023-04-02T11:01:57.422Z,13.60
2023-04-02T11:04:46.653Z,14.90
2023-04-02T11:07:23.002Z,14.40
2023-04-02T11:09:56.734Z,12.90
2023-04-02T11:13:24.893Z,10.60
2023-04-02T11:15:54.078Z,12.80
2023-04-02T11:18:36.132Z,13.50
2023-04-02T11:21:58.069Z,11.00
2023-04-02T11:24:38.330Z,13.40
2023-04-02T11:27:16.731Z,12.40
2023-04-02T11:30:35.073Z,10.30
2023-04-02T11:38:06.236Z,13.30
2023-04-02T11:40:48.818Z,12.50
2023-04-02T11:43:37.250Z,10.60
2023-04-02T11:46:35.037Z,12.60
2023-04-02T11:49:40.934Z,12.40
2023-04-02T11:52:24.469Z,11.30
2023-04-02T11:56:09.114Z,6.30
2023-04-02T11:59:38.199Z,11.70
2023-04-02T12:03:13.976Z,11.00
2023-04-02T12:06:26.046Z,9.60
2023-04-02T12:09:09.765Z,10.50
2023-04-02T12:11:41.655Z,8.40
2023-04-02T12:14:38.298Z,12.70
2023-04-02T12:17:39.259Z,6.70
2023-04-02T12:20:10.889Z,11.80
2023-04-02T12:22:49.136Z,10.80
2023-04-02T12:25:41.018Z,13.60
2023-04-02T12:28:09.739Z,6.40
2023-04-02T12:30:39.232Z,11.50
2023-04-02T12:33:20.154Z,11.50
2023-04-02T12:35:58.768Z,9.50
2023-04-02T12:38:31.355Z,12.10
2023-04-02T12:43:38.191Z,12.00
2023-04-02T12:46:59.694Z,12.10
2023-04-02T12:49:39.205Z,9.80
2023-04-02T12:52:17.734Z,13.30
2023-04-02T12:54:58.787Z,7.30
2023-04-02T12:57:32.607Z,10.00
2023-04-02T13:00:20.280Z,8.10
2023-04-02T13:03:01.251Z,9.40
2023-04-02T13:05:45.850Z,7.90
2023-04-02T13:08:29.654Z,10.20
2023-04-02T13:11:01.220Z,10.10
2023-04-02T13:13:41.225Z,5.80
2023-04-02T13:16:16.204Z,10.50
2023-04-02T13:18:50.646Z,10.10
2023-04-02T13:21:30.031Z,8.50
2023-04-02T13:23:59.350Z,9.30
2023-04-02T13:26:32.186Z,8.00
2023-04-02T13:29:27.097Z,7.20
2023-04-02T13:32:13.263Z,7.70
2023-04-02T13:34:45.032Z,12.70
2023-04-02T13:37:14.138Z,7.80
2023-04-02T13:39:43.100Z,6.60
2023-04-02T13:42:15.848Z,11.60
2023-04-02T13:44:47.478Z,8.50
2023-04-02T13:47:21.654Z,7.50
2023-04-02T13:50:21.621Z,8.20
2023-04-02T13:52:54.041Z,7.40
2023-04-02T13:55:28.523Z,7.80
2023-04-02T13:59:07.589Z,9.40
2023-04-02T14:01:41.464Z,6.70
2023-04-02T14:04:38.880Z,11.90
2023-04-02T14:07:55.591Z,10.00
2023-04-02T14:11:20.107Z,9.30
2023-04-02T14:13:58.461Z,9.80
2023-04-02T14:16:41.029Z,7.80
2023-04-02T14:19:40.940Z,8.60
2023-04-02T14:22:54.060Z,7.40
2023-04-02T14:25:37.704Z,8.40
2023-04-02T14:28:49.467Z,10.10
2023-04-02T14:31:33.411Z,11.90
2023-04-02T14:35:00.011Z,8.70
2023-04-02T14:38:08.180Z,11.60
2023-04-02T14:40:50.338Z,9.80
2023-04-02T14:46:44.210Z,10.60
2023-04-02T14:49:43.451Z,8.90
2023-04-02T14:52:22.138Z,9.50
2023-04-02T14:55:07.909Z,8.40
2023-04-02T14:57:52.080Z,9.30
2023-04-02T15:00:50.753Z,11.90
2023-04-02T15:03:29.201Z,7.90
2023-04-02T15:06:10.916Z,13.30
2023-04-02T15:12:45.220Z,10.50
2023-04-02T15:15:40.272Z,10.70
2023-04-02T15:18:23.527Z,13.80
2023-04-02T15:21:19.481Z,13.40
2023-04-02T15:24:20.401Z,12.90
2023-04-02T15:27:43.668Z,11.00
2023-04-02T15:31:08.945Z,12.30
2023-04-02T15:33:46.238Z,13.00
2023-04-02T15:36:48.142Z,14.40
2023-04-02T15:39:19.237Z,12.10
2023-04-02T15:42:18.933Z,13.40
2023-04-02T15:45:40.528Z,11.80
2023-04-02T15:49:37.752Z,9.00
2023-04-02T15:52:57.447Z,10.60
2023-04-02T15:56:27.185Z,10.50
2023-04-02T15:59:20.015Z,9.30
2023-04-02T16:02:23.601Z,7.60
2023-04-02T16:05:24.978Z,11.50
2023-04-02T16:08:36.045Z,8.80
2023-04-02T16:11:13.852Z,7.30
2023-04-02T16:13:44.370Z,8.60
2023-04-02T16:16:36.404Z,8.00
2023-04-02T16:19:47.110Z,9.40
2023-04-02T16:22:29.857Z,9.50
2023-04-02T16:27:55.739Z,6.80
2023-04-02T16:30:51.747Z,7.00
2023-04-02T16:34:02.735Z,6.50
2023-04-02T16:36:47.060Z,6.70
2023-04-02T16:40:07.112Z,7.10
2023-04-02T16:43:17.406Z,8.20
2023-04-02T16:45:57.501Z,7.80
2023-04-02T16:48:39.265Z,8.80
2023-04-02T16:51:41.744Z,10.50
2023-04-02T16:54:46.524Z,11.30
2023-04-02T16:57:41.313Z,10.90
2023-04-02T17:00:40.503Z,12.20
2023-04-02T17:03:22.156Z,13.30
2023-04-02T17:06:16.201Z,12.90
2023-04-02T17:09:02.068Z,12.70
2023-04-02T17:15:28.275Z,14.70
2023-04-02T17:18:01.126Z,11.10
2023-04-02T17:20:39.398Z,10.80
2023-04-02T17:23:25.550Z,8.70
2023-04-02T17:26:15.181Z,11.30
2023-04-02T17:28:59.583Z,9.20
2023-04-02T17:31:40.947Z,19.70
2023-04-02T17:34:27.029Z,8.80
2023-04-02T17:37:54.336Z,10.20
2023-04-02T17:41:02.569Z,17.60
2023-04-02T17:44:19.405Z,11.00
2023-04-02T17:47:21.764Z,12.50
2023-04-02T17:50:15.384Z,10.40
2023-04-02T17:53:21.876Z,10.60
2023-04-02T17:55:56.313Z,11.80
2023-04-02T17:59:40.084Z,10.00
2023-04-02T18:03:13.960Z,13.60
2023-04-02T18:05:52.536Z,12.50
2023-04-02T18:12:01.680Z,22.50
2023-04-02T18:14:56.369Z,19.20
2023-04-02T18:17:50.515Z,28.90
2023-04-02T18:21:24.889Z,15.80
2023-04-02T18:24:18.164Z,12.80
2023-04-02T18:27:04.145Z,18.20
2023-04-02T18:30:10.261Z,14.90
2023-04-02T18:33:06.845Z,16.60
2023-04-02T18:35:56.697Z,12.60
2023-04-02T18:38:54.146Z,14.60
2023-04-02T18:42:05.390Z,14.60
2023-04-02T18:45:10.999Z,12.00
2023-04-02T18:48:20.137Z,11.50
2023-04-02T18:50:49.819Z,10.10
2023-04-02T18:53:24.799Z,12.40
2023-04-02T18:56:25.286Z,11.90
2023-04-02T18:58:58.841Z,10.10
2023-04-02T19:04:31.195Z,11.20
2023-04-02T19:07:18.864Z,10.70
2023-04-02T19:09:50.684Z,10.90
2023-04-02T19:12:23.855Z,12.50
2023-04-02T19:14:52.769Z,12.40
2023-04-02T19:17:47.459Z,8.80
2023-04-02T19:21:05.081Z,13.80
2023-04-02T19:23:56.843Z,11.40
2023-04-02T19:26:36.608Z,8.70
2023-04-02T19:29:41.775Z,8.70
2023-04-02T19:32:52.906Z,8.30
2023-04-02T19:35:37.389Z,6.70
2023-04-02T19:38:40.793Z,7.10
2023-04-02T19:41:31.942Z,7.20
2023-04-02T19:44:00.916Z,10.20
2023-04-02T19:46:30.605Z,12.20
2023-04-02T19:49:03.780Z,11.60
2023-04-02T19:51:33.784Z,9.40
2023-04-02T19:54:04.814Z,8.60
2023-04-02T19:56:35.289Z,8.50
2023-04-02T19:59:17.249Z,8.10
2023-04-02T20:04:15.959Z,8.80
2023-04-02T20:06:45.214Z,7.90
2023-04-02T20:09:13.874Z,8.00
2023-04-02T20:11:42.507Z,8.20
2023-04-02T20:14:13.412Z,9.80
2023-04-02T20:16:43.276Z,7.20
2023-04-02T20:19:13.279Z,7.50
2023-04-02T20:21:41.970Z,9.20
2023-04-02T20:24:10.686Z,7.40
2023-04-02T20:26:39.259Z,8.20
2023-04-02T20:29:07.989Z,7.80
2023-04-02T20:31:36.746Z,9.30
2023-04-02T20:34:07.062Z,10.50
2023-04-02T20:36:36.134Z,12.10
2023-04-02T20:39:08.103Z,10.30
2023-04-02T20:41:36.707Z,10.80
2023-04-02T20:44:05.509Z,11.50
2023-04-02T20:46:34.403Z,11.10
2023-04-02T20:49:03.589Z,11.60
2023-04-02T20:53:52.463Z,11.90
2023-04-02T20:56:23.517Z,9.70
2023-04-02T20:58:52.690Z,9.80
2023-04-02T21:01:21.365Z,9.20
2023-04-02T21:03:54.981Z,10.60
2023-04-02T21:06:26.322Z,11.60
2023-04-02T21:08:55.063Z,10.70
2023-04-02T21:11:26.388Z,10.60
2023-04-02T21:13:54.935Z,9.70
2023-04-02T21:16:29.788Z,11.20
2023-04-02T21:19:06.280Z,10.10
2023-04-02T21:21:38.134Z,9.90
2023-04-02T21:24:09.626Z,8.60
2023-04-02T21:26:41.646Z,9.00
2023-04-02T21:29:12.520Z,8.80
2023-04-02T21:31:42.190Z,7.40
2023-04-02T21:34:16.250Z,7.50
2023-04-02T21:36:48.125Z,7.30
2023-04-02T21:39:23.400Z,8.10
2023-04-02T21:41:53.426Z,8.40
2023-04-02T21:44:24.211Z,8.80
2023-04-02T21:46:54.068Z,6.80
2023-04-02T21:49:23.715Z,5.80
2023-04-02T21:51:52.657Z,6.40
2023-04-02T21:54:21.677Z,5.50
2023-04-02T21:56:50.558Z,6.30
2023-04-02T21:59:19.892Z,5.20
2023-04-02T22:01:51.352Z,5.00
2023-04-02T22:04:25.761Z,4.30
2023-04-02T22:06:54.812Z,5.00
2023-04-02T22:09:26.892Z,5.80
2023-04-02T22:12:02.552Z,5.30
2023-04-02T22:14:31.410Z,5.30
2023-04-02T22:17:00.829Z,6.40
2023-04-02T22:19:29.687Z,5.30
2023-04-02T22:21:58.372Z,5.20
2023-04-02T22:24:27.333Z,4.50
2023-04-02T22:26:56.193Z,7.80
2023-04-02T22:29:24.855Z,5.30
2023-04-02T22:31:53.513Z,5.30
2023-04-02T22:34:22.281Z,5.00
2023-04-02T22:36:51.048Z,4.90
2023-04-02T22:39:19.728Z,4.50
2023-04-02T22:41:49.012Z,5.50
2023-04-02T22:44:17.828Z,4.80
2023-04-02T22:46:46.803Z,6.10
2023-04-02T22:49:19.500Z,5.30
2023-04-02T22:51:48.575Z,6.40
2023-04-02T22:54:17.285Z,6.30
2023-04-02T22:56:46.143Z,5.80
2023-04-02T22:59:15.002Z,4.80
2023-04-02T23:01:43.815Z,5.90
2023-04-02T23:04:13.019Z,6.70
2023-04-02T23:06:41.845Z,6.50
2023-04-02T23:09:11.312Z,5.20
2023-04-02T23:11:40.019Z,6.90
2023-04-02T23:14:09.769Z,6.80
2023-04-02T23:16:38.624Z,5.10
2023-04-02T23:19:07.489Z,5.80
2023-04-02T23:21:36.619Z,6.60
2023-04-02T23:24:05.447Z,8.10
2023-04-02T23:26:34.207Z,5.80
2023-04-02T23:29:03.005Z,5.80
2023-04-02T23:31:32.084Z,5.50
2023-04-02T23:34:02.714Z,6.20
2023-04-02T23:36:34.686Z,6.10
2023-04-02T23:39:11.016Z,5.10
2023-04-02T23:41:42.829Z,6.30
2023-04-02T23:44:12.280Z,4.40
2023-04-02T23:46:41.098Z,6.10
2023-04-02T23:49:12.819Z,6.00
2023-04-02T23:51:41.860Z,4.80
2023-04-02T23:54:14.844Z,4.40
2023-04-02T23:56:43.661Z,5.40
2023-04-02T23:59:12.385Z,4.60
